createdAt,value
2018-07-30T00:00:50.324Z,100456.64
2018-07-30T00:01:53.767Z,100459.44
2018-07-30T00:02:57.314Z,100455.66
2018-07-30T00:04:00.738Z,100462.23
2018-07-30T00:05:04.225Z,100458.04
2018-07-30T00:06:07.676Z,100461.23
2018-07-30T00:07:11.087Z,100462.64
2018-07-30T00:08:14.490Z,100466.02
2018-07-30T00:09:17.919Z,100464.03
2018-07-30T00:10:21.332Z,100459.05
2018-07-30T00:11:24.923Z,100460.44
2018-07-30T00:12:28.314Z,100458.45
2018-07-30T00:13:31.698Z,100462.64
2018-07-30T00:14:35.092Z,100465.62
2018-07-30T00:15:38.540Z,100459.84
2018-07-30T00:16:41.960Z,100465.42
2018-07-30T00:17:45.371Z,100467.42
2018-07-30T00:18:49.016Z,100463.44
2018-07-30T00:19:52.430Z,100467.03
2018-07-30T00:20:55.835Z,100464.03
2018-07-30T00:21:59.255Z,100462.64
2018-07-30T00:23:02.642Z,100460.44
2018-07-30T00:24:06.025Z,100462.64
2018-07-30T00:25:10.135Z,100462.64
2018-07-30T00:26:13.544Z,100467.03
2018-07-30T00:27:16.964Z,100469.22
2018-07-30T00:28:20.358Z,100469.22
2018-07-30T00:29:23.717Z,100464.44
2018-07-30T00:30:27.125Z,100462.45
2018-07-30T00:31:30.554Z,100461.05
2018-07-30T00:32:33.932Z,100454.47
2018-07-30T00:33:37.324Z,100462.45
2018-07-30T00:34:40.716Z,100461.64
2018-07-30T00:35:44.100Z,100460.05
2018-07-30T00:36:47.529Z,100457.45
2018-07-30T00:37:51.251Z,100465.83
2018-07-30T00:38:54.655Z,100465.23
2018-07-30T00:39:58.079Z,100468.63
2018-07-30T00:41:01.468Z,100465.83
2018-07-30T00:42:04.965Z,100467.23
2018-07-30T00:43:08.372Z,100465.83
2018-07-30T00:44:11.766Z,100463.05
2018-07-30T00:45:15.171Z,100468.63
2018-07-30T00:46:18.558Z,100462.84
2018-07-30T00:47:21.950Z,100467.23
2018-07-30T00:48:25.376Z,100467.03
2018-07-30T00:49:28.778Z,100468.63
2018-07-30T00:50:32.212Z,100463.05
2018-07-30T00:51:35.821Z,100469.42
2018-07-30T00:52:39.426Z,100465.62
2018-07-30T00:53:42.853Z,100471.41
2018-07-30T00:54:46.249Z,100468.42
2018-07-30T00:55:49.634Z,100472.02
2018-07-30T00:56:53.068Z,100470.41
2018-07-30T00:57:56.438Z,100467.63
2018-07-30T00:58:59.917Z,100469.82
2018-07-30T01:00:03.369Z,100469.82
2018-07-30T01:01:06.774Z,100471.41
2018-07-30T01:02:10.225Z,100472.02
2018-07-30T01:03:13.604Z,100467.23
2018-07-30T01:04:16.997Z,100465.03
2018-07-30T01:05:20.362Z,100464.44
2018-07-30T01:06:23.786Z,100464.23
2018-07-30T01:07:27.162Z,100462.23
2018-07-30T01:08:30.529Z,100462.84
2018-07-30T01:09:33.936Z,100467.83
2018-07-30T01:10:37.307Z,100467.23
2018-07-30T01:11:40.731Z,100467.03
2018-07-30T01:12:44.108Z,100471.22
2018-07-30T01:13:47.528Z,100468.42
2018-07-30T01:14:50.936Z,100469.02
2018-07-30T01:15:54.315Z,100468.63
2018-07-30T01:16:57.724Z,100467.03
2018-07-30T01:18:01.110Z,100464.44
2018-07-30T01:19:04.502Z,100468.22
2018-07-30T01:20:08.043Z,100463.23
2018-07-30T01:21:11.461Z,100463.23
2018-07-30T01:22:14.878Z,100465.62
2018-07-30T01:23:18.264Z,100464.03
2018-07-30T01:24:21.656Z,100459.84
2018-07-30T01:25:25.108Z,100466.62
2018-07-30T01:26:29.588Z,100473.00
2018-07-30T01:27:32.959Z,100471.02
2018-07-30T01:28:36.326Z,100473.80
2018-07-30T01:29:39.711Z,100470.81
2018-07-30T01:30:43.136Z,100475.20
2018-07-30T01:31:46.509Z,100476.59
2018-07-30T01:32:49.892Z,100476.39
2018-07-30T01:33:53.786Z,100473.00
2018-07-30T01:34:57.149Z,100476.59
2018-07-30T01:36:00.534Z,100472.20
2018-07-30T01:37:03.948Z,100470.21
2018-07-30T01:38:07.358Z,100472.20
2018-07-30T01:39:10.737Z,100472.20
2018-07-30T01:40:14.243Z,100472.20
2018-07-30T01:41:17.853Z,100470.81
2018-07-30T01:42:21.226Z,100473.60
2018-07-30T01:43:24.622Z,100470.01
2018-07-30T01:44:28.038Z,100468.61
2018-07-30T01:45:31.426Z,100473.99
2018-07-30T01:46:34.824Z,100476.98
2018-07-30T01:47:38.224Z,100470.61
2018-07-30T01:48:41.666Z,100473.60
2018-07-30T01:49:45.044Z,100476.39
2018-07-30T01:50:48.457Z,100479.39
2018-07-30T01:51:51.907Z,100477.78
2018-07-30T01:52:55.318Z,100481.37
2018-07-30T01:53:58.697Z,100483.78
2018-07-30T01:55:02.095Z,100483.78
2018-07-30T01:56:05.952Z,100480.78
2018-07-30T01:57:09.395Z,100479.39
2018-07-30T01:58:12.928Z,100478.79
2018-07-30T01:59:16.317Z,100477.99
2018-07-30T02:00:19.722Z,100486.96
2018-07-30T02:01:23.130Z,100480.78
2018-07-30T02:02:26.548Z,100487.77
2018-07-30T02:03:29.964Z,100487.97
2018-07-30T02:04:33.359Z,100488.95
2018-07-30T02:05:36.767Z,100484.97
2018-07-30T02:06:40.188Z,100484.17
2018-07-30T02:07:43.608Z,100486.16
2018-07-30T02:08:47.000Z,100487.77
2018-07-30T02:09:50.530Z,100483.97
2018-07-30T02:10:53.924Z,100483.38
2018-07-30T02:11:57.324Z,100493.73
2018-07-30T02:13:00.715Z,100486.16
2018-07-30T02:14:04.609Z,100485.36
2018-07-30T02:15:08.549Z,100487.56
2018-07-30T02:16:11.990Z,100484.56
2018-07-30T02:17:15.370Z,100486.77
2018-07-30T02:18:18.800Z,100484.56
2018-07-30T02:19:22.201Z,100481.17
2018-07-30T02:20:25.580Z,100483.17
2018-07-30T02:21:29.048Z,100483.17
2018-07-30T02:22:32.781Z,100481.77
2018-07-30T02:23:36.218Z,100486.16
2018-07-30T02:24:39.590Z,100482.57
2018-07-30T02:25:43.040Z,100485.96
2018-07-30T02:26:46.426Z,100483.17
2018-07-30T02:27:49.840Z,100498.52
2018-07-30T02:28:53.263Z,100495.73
2018-07-30T02:29:56.653Z,100490.95
2018-07-30T02:31:00.050Z,100493.14
2018-07-30T02:32:03.457Z,100486.96
2018-07-30T02:33:06.845Z,100490.35
2018-07-30T02:34:10.686Z,100491.36
2018-07-30T02:35:14.062Z,100488.36
2018-07-30T02:36:17.499Z,100494.74
2018-07-30T02:37:20.929Z,100489.55
2018-07-30T02:38:24.354Z,100484.56
2018-07-30T02:39:27.746Z,100494.54
2018-07-30T02:40:31.166Z,100493.14
2018-07-30T02:41:34.576Z,100494.54
2018-07-30T02:42:37.981Z,100498.73
2018-07-30T02:43:41.427Z,100505.70
2018-07-30T02:44:44.908Z,100508.89
2018-07-30T02:45:48.702Z,100500.92
2018-07-30T02:46:52.125Z,100497.33
2018-07-30T02:47:55.532Z,100490.14
2018-07-30T02:48:58.964Z,100497.53
2018-07-30T02:50:02.391Z,100494.74
2018-07-30T02:51:05.841Z,100493.34
2018-07-30T02:52:09.335Z,100488.95
2018-07-30T02:53:12.752Z,100492.14
2018-07-30T02:54:16.171Z,100490.92
2018-07-30T02:55:19.577Z,100485.27
2018-07-30T02:56:22.983Z,100492.42
2018-07-30T02:57:26.437Z,100490.16
2018-07-30T02:58:29.835Z,100492.70
2018-07-30T02:59:33.221Z,100493.41
2018-07-30T03:00:36.640Z,100496.16
2018-07-30T03:01:40.073Z,100495.23
2018-07-30T03:02:43.499Z,100490.77
2018-07-30T03:03:46.902Z,100491.90
2018-07-30T03:04:50.302Z,100492.02
2018-07-30T03:05:53.799Z,100492.77
2018-07-30T03:06:57.215Z,100492.95
2018-07-30T03:08:00.604Z,100499.27
2018-07-30T03:09:04.582Z,100497.84
2018-07-30T03:10:08.231Z,100499.20
2018-07-30T03:11:11.704Z,100495.59
2018-07-30T03:12:15.108Z,100503.08
2018-07-30T03:13:18.680Z,100504.00
2018-07-30T03:14:22.081Z,100500.10
2018-07-30T03:15:25.462Z,100500.45
2018-07-30T03:16:28.901Z,100491.85
2018-07-30T03:17:32.276Z,100494.36
2018-07-30T03:18:35.765Z,100498.89
2018-07-30T03:19:39.234Z,100496.23
2018-07-30T03:20:42.660Z,100502.88
2018-07-30T03:21:46.099Z,100494.45
2018-07-30T03:22:49.491Z,100495.73
2018-07-30T03:23:52.911Z,100504.84
2018-07-30T03:24:56.294Z,100498.41
2018-07-30T03:25:59.677Z,100499.80
2018-07-30T03:27:03.075Z,100502.41
2018-07-30T03:28:06.476Z,100500.88
2018-07-30T03:29:09.917Z,100507.08
2018-07-30T03:30:13.373Z,100506.34
2018-07-30T03:31:16.874Z,100502.80
2018-07-30T03:32:20.364Z,100509.80
2018-07-30T03:33:23.795Z,100511.23
2018-07-30T03:34:27.208Z,100515.83
2018-07-30T03:35:30.627Z,100517.64
2018-07-30T03:36:33.989Z,100516.11
2018-07-30T03:37:37.613Z,100520.12
2018-07-30T03:38:41.005Z,100526.11
2018-07-30T03:39:44.397Z,100519.36
2018-07-30T03:40:47.778Z,100526.95
2018-07-30T03:41:51.157Z,100520.20
2018-07-30T03:42:54.593Z,100519.22
2018-07-30T03:43:57.976Z,100518.28
2018-07-30T03:45:01.356Z,100517.89
2018-07-30T03:46:04.780Z,100527.86
2018-07-30T03:47:08.166Z,100526.29
2018-07-30T03:48:11.577Z,100522.32
2018-07-30T03:49:15.037Z,100527.89
2018-07-30T03:50:18.557Z,100522.32
2018-07-30T03:51:21.956Z,100531.90
2018-07-30T03:52:25.350Z,100527.12
2018-07-30T03:53:28.786Z,100531.72
2018-07-30T03:54:32.192Z,100528.55
2018-07-30T03:55:35.550Z,100530.16
2018-07-30T03:56:38.972Z,100526.81
2018-07-30T03:57:42.392Z,100529.01
2018-07-30T03:58:45.806Z,100530.98
2018-07-30T03:59:49.227Z,100529.01
2018-07-30T04:00:52.616Z,100532.59
2018-07-30T04:01:56.188Z,100532.38
2018-07-30T04:02:59.589Z,100530.75
2018-07-30T04:04:03.006Z,100531.34
2018-07-30T04:05:06.444Z,100530.33
2018-07-30T04:06:09.859Z,100536.50
2018-07-30T04:07:13.253Z,100538.27
2018-07-30T04:08:16.802Z,100532.48
2018-07-30T04:09:20.212Z,100537.27
2018-07-30T04:10:23.611Z,100540.84
2018-07-30T04:11:26.984Z,100540.05
2018-07-30T04:12:30.391Z,100544.61
2018-07-30T04:13:33.819Z,100543.00
2018-07-30T04:14:37.195Z,100543.59
2018-07-30T04:15:40.580Z,100543.98
2018-07-30T04:16:51.412Z,100543.56
2018-07-30T04:17:54.918Z,100545.89
2018-07-30T04:18:58.322Z,100540.08
2018-07-30T04:20:01.715Z,100544.42
2018-07-30T04:21:05.092Z,100547.34
2018-07-30T04:22:08.548Z,100549.04
2018-07-30T04:23:11.926Z,100543.77
2018-07-30T04:24:15.561Z,100545.67
2018-07-30T04:25:18.926Z,100541.97
2018-07-30T04:26:22.331Z,100543.91
2018-07-30T04:27:25.736Z,100538.44
2018-07-30T04:28:29.138Z,100544.34
2018-07-30T04:29:32.535Z,100546.86
2018-07-30T04:30:35.916Z,100549.14
2018-07-30T04:31:39.358Z,100553.91
2018-07-30T04:32:42.880Z,100547.86
2018-07-30T04:33:46.272Z,100552.25
2018-07-30T04:34:49.668Z,100548.66
2018-07-30T04:35:53.218Z,100546.52
2018-07-30T04:36:56.634Z,100545.55
2018-07-30T04:38:00.034Z,100537.96
2018-07-30T04:39:03.531Z,100546.47
2018-07-30T04:40:06.963Z,100543.85
2018-07-30T04:41:10.355Z,100540.99
2018-07-30T04:42:13.726Z,100549.83
2018-07-30T04:43:17.123Z,100550.58
2018-07-30T04:44:20.543Z,100547.28
2018-07-30T04:45:23.972Z,100545.63
2018-07-30T04:46:27.369Z,100551.85
2018-07-30T04:47:30.770Z,100550.22
2018-07-30T04:48:34.169Z,100550.59
2018-07-30T04:49:37.552Z,100555.73
2018-07-30T04:50:41.035Z,100552.36
2018-07-30T04:51:44.423Z,100551.98
2018-07-30T04:52:48.084Z,100550.22
2018-07-30T04:53:51.490Z,100548.03
2018-07-30T04:54:54.924Z,100550.92
2018-07-30T04:55:58.344Z,100550.39
2018-07-30T04:57:01.872Z,100550.02
2018-07-30T04:58:05.282Z,100556.44
2018-07-30T04:59:08.710Z,100556.27
2018-07-30T05:00:12.187Z,100555.77
2018-07-30T05:01:15.616Z,100555.02
2018-07-30T05:02:19.000Z,100555.06
2018-07-30T05:03:22.376Z,100550.94
2018-07-30T05:04:25.753Z,100551.02
2018-07-30T05:05:29.180Z,100553.43
2018-07-30T05:06:32.569Z,100558.23
2018-07-30T05:07:36.145Z,100561.88
2018-07-30T05:08:39.537Z,100562.30
2018-07-30T05:09:42.936Z,100566.34
2018-07-30T05:10:46.325Z,100562.59
2018-07-30T05:11:49.735Z,100564.20
2018-07-30T05:12:53.134Z,100560.45
2018-07-30T05:13:56.528Z,100564.45
2018-07-30T05:14:59.990Z,100559.90
2018-07-30T05:16:03.427Z,100563.48
2018-07-30T05:17:07.071Z,100561.30
2018-07-30T05:18:10.504Z,100561.08
2018-07-30T05:19:13.924Z,100567.66
2018-07-30T05:20:17.308Z,100564.88
2018-07-30T05:21:20.702Z,100566.91
2018-07-30T05:22:24.117Z,100562.14
2018-07-30T05:23:27.538Z,100566.56
2018-07-30T05:24:30.954Z,100564.20
2018-07-30T05:25:34.405Z,100567.20
2018-07-30T05:26:37.822Z,100568.20
2018-07-30T05:27:41.375Z,100572.59
2018-07-30T05:28:44.757Z,100569.81
2018-07-30T05:29:48.136Z,100569.02
2018-07-30T05:30:51.920Z,100570.56
2018-07-30T05:31:56.102Z,100576.73
2018-07-30T05:32:59.541Z,100570.49
2018-07-30T05:34:02.937Z,100565.68
2018-07-30T05:35:06.421Z,100569.05
2018-07-30T05:36:10.052Z,100574.95
2018-07-30T05:37:13.490Z,100571.19
2018-07-30T05:38:16.969Z,100576.54
2018-07-30T05:39:20.581Z,100574.72
2018-07-30T05:40:24.046Z,100572.88
2018-07-30T05:41:27.453Z,100574.01
2018-07-30T05:42:31.335Z,100575.53
2018-07-30T05:43:34.865Z,100572.31
2018-07-30T05:44:38.243Z,100574.72
2018-07-30T05:45:42.012Z,100582.00
2018-07-30T05:46:45.416Z,100576.22
2018-07-30T05:47:48.803Z,100576.44
2018-07-30T05:48:52.332Z,100574.67
2018-07-30T05:49:55.728Z,100577.45
2018-07-30T05:50:59.145Z,100573.06
2018-07-30T05:52:02.563Z,100574.98
2018-07-30T05:53:05.984Z,100573.64
2018-07-30T05:54:09.401Z,100573.53
2018-07-30T05:55:12.850Z,100571.66
2018-07-30T05:56:16.277Z,100572.16
2018-07-30T05:57:19.695Z,100577.87
2018-07-30T05:58:23.093Z,100576.91
2018-07-30T05:59:26.605Z,100572.16
2018-07-30T06:00:30.015Z,100572.00
2018-07-30T06:01:33.451Z,100575.45
2018-07-30T06:02:36.848Z,100572.45
2018-07-30T06:03:40.315Z,100574.86
2018-07-30T06:04:43.766Z,100573.75
2018-07-30T06:05:47.194Z,100579.58
2018-07-30T06:06:50.639Z,100584.30
2018-07-30T06:07:54.087Z,100579.37
2018-07-30T06:08:57.472Z,100571.67
2018-07-30T06:10:00.895Z,100576.11
2018-07-30T06:11:04.297Z,100578.98
2018-07-30T06:12:07.740Z,100578.23
2018-07-30T06:13:11.134Z,100580.27
2018-07-30T06:14:14.550Z,100576.52
2018-07-30T06:15:18.026Z,100579.35
2018-07-30T06:16:21.423Z,100577.83
2018-07-30T06:17:24.834Z,100579.06
2018-07-30T06:18:28.489Z,100578.90
2018-07-30T06:19:31.894Z,100583.50
2018-07-30T06:20:35.323Z,100572.58
2018-07-30T06:21:39.073Z,100583.55
2018-07-30T06:22:42.483Z,100576.00
2018-07-30T06:23:45.905Z,100579.00
2018-07-30T06:24:49.479Z,100575.03
2018-07-30T06:25:52.908Z,100590.00
2018-07-30T06:26:56.344Z,100582.45
2018-07-30T06:27:59.737Z,100581.27
2018-07-30T06:29:03.191Z,100584.48
2018-07-30T06:30:08.026Z,100576.13
2018-07-30T06:31:11.452Z,100581.70
2018-07-30T06:32:14.888Z,100581.91
2018-07-30T06:33:18.311Z,100586.51
2018-07-30T06:34:21.730Z,100584.53
2018-07-30T06:35:25.118Z,100587.90
2018-07-30T06:36:28.514Z,100585.33
2018-07-30T06:37:32.018Z,100587.73
2018-07-30T06:38:35.489Z,100588.33
2018-07-30T06:39:38.836Z,100590.14
2018-07-30T06:40:42.301Z,100590.14
2018-07-30T06:41:45.721Z,100590.36
2018-07-30T06:42:49.154Z,100591.75
2018-07-30T06:43:52.533Z,100589.17
2018-07-30T06:44:55.930Z,100592.17
2018-07-30T06:45:59.314Z,100593.00
2018-07-30T06:47:02.730Z,100596.80
2018-07-30T06:48:06.152Z,100594.82
2018-07-30T06:49:09.554Z,100595.63
2018-07-30T06:50:12.971Z,100596.05
2018-07-30T06:51:16.376Z,100600.22
2018-07-30T06:52:19.781Z,100600.44
2018-07-30T06:53:23.262Z,100599.25
2018-07-30T06:54:26.595Z,100597.86
2018-07-30T06:55:30.066Z,100600.30
2018-07-30T06:56:33.515Z,100601.10
2018-07-30T06:57:36.974Z,100605.49
2018-07-30T06:58:40.404Z,100605.28
2018-07-30T06:59:43.812Z,100602.92
2018-07-30T07:00:47.212Z,100602.12
2018-07-30T07:01:51.114Z,100610.09
2018-07-30T07:02:54.493Z,100606.13
2018-07-30T07:03:57.905Z,100607.31
2018-07-30T07:05:01.298Z,100609.50
2018-07-30T07:06:04.743Z,100607.73
2018-07-30T07:07:08.205Z,100606.34
2018-07-30T07:08:11.624Z,100604.95
2018-07-30T07:09:15.044Z,100609.37
2018-07-30T07:10:18.479Z,100608.98
2018-07-30T07:11:21.894Z,100610.17
2018-07-30T07:12:25.308Z,100605.41
2018-07-30T07:13:28.689Z,100609.37
2018-07-30T07:14:32.092Z,100608.19
2018-07-30T07:15:35.475Z,100613.16
2018-07-30T07:16:39.211Z,100615.36
2018-07-30T07:17:43.439Z,100613.97
2018-07-30T07:18:46.889Z,100610.59
2018-07-30T07:19:50.283Z,100613.59
2018-07-30T07:20:53.931Z,100619.75
2018-07-30T07:21:57.433Z,100618.36
2018-07-30T07:23:00.830Z,100614.39
2018-07-30T07:24:04.252Z,100626.55
2018-07-30T07:25:07.936Z,100623.76
2018-07-30T07:26:11.353Z,100625.16
2018-07-30T07:27:14.745Z,100621.78
2018-07-30T07:28:18.170Z,100621.19
2018-07-30T07:29:21.619Z,100617.81
2018-07-30T07:30:25.020Z,100623.38
2018-07-30T07:31:28.440Z,100623.38
2018-07-30T07:32:31.856Z,100621.98
2018-07-30T07:33:35.271Z,100619.42
2018-07-30T07:34:38.727Z,100623.81
2018-07-30T07:35:42.233Z,100620.05
2018-07-30T07:36:45.650Z,100625.62
2018-07-30T07:37:49.066Z,100623.27
2018-07-30T07:38:52.593Z,100620.09
2018-07-30T07:39:56.041Z,100621.28
2018-07-30T07:40:59.476Z,100619.89
2018-07-30T07:42:02.934Z,100613.73
2018-07-30T07:43:06.366Z,100616.59
2018-07-30T07:44:09.790Z,100618.19
2018-07-30T07:45:13.207Z,100620.39
2018-07-30T07:46:16.650Z,100617.81
2018-07-30T07:47:20.063Z,100619.42
2018-07-30T07:48:23.548Z,100622.20
2018-07-30T07:49:27.029Z,100624.61
2018-07-30T07:50:30.509Z,100624.02
2018-07-30T07:51:33.865Z,100617.05
2018-07-30T07:52:37.275Z,100620.85
2018-07-30T07:53:41.168Z,100627.23
2018-07-30T07:54:46.332Z,100622.84
2018-07-30T07:55:50.460Z,100623.05
2018-07-30T07:56:53.877Z,100627.44
2018-07-30T07:57:57.308Z,100621.86
2018-07-30T07:59:00.734Z,100628.23
2018-07-30T08:00:05.853Z,100631.02
2018-07-30T08:01:09.284Z,100631.23
2018-07-30T08:02:12.690Z,100637.40
2018-07-30T08:03:16.079Z,100628.45
2018-07-30T08:04:19.563Z,100629.33
2018-07-30T08:05:22.972Z,100625.73
2018-07-30T08:06:26.369Z,100626.33
2018-07-30T08:07:29.776Z,100624.56
2018-07-30T08:08:33.195Z,100631.52
2018-07-30T08:09:36.623Z,100618.98
2018-07-30T08:10:40.048Z,100618.98
2018-07-30T08:11:43.500Z,100620.37
2018-07-30T08:12:46.890Z,100625.36
2018-07-30T08:13:50.282Z,100618.98
2018-07-30T08:14:53.650Z,100620.37
2018-07-30T08:15:57.092Z,100619.20
2018-07-30T08:17:01.077Z,100616.63
2018-07-30T08:18:04.509Z,100621.39
2018-07-30T08:19:07.932Z,100619.41
2018-07-30T08:20:11.318Z,100618.60
2018-07-30T08:21:14.744Z,100615.02
2018-07-30T08:22:18.156Z,100616.63
2018-07-30T08:23:21.568Z,100616.63
2018-07-30T08:24:24.937Z,100613.25
2018-07-30T08:25:28.387Z,100618.22
2018-07-30T08:26:31.799Z,100611.27
2018-07-30T08:27:35.217Z,100610.46
2018-07-30T08:28:38.714Z,100611.05
2018-07-30T08:29:42.088Z,100612.66
2018-07-30T08:30:45.644Z,100616.03
2018-07-30T08:31:49.097Z,100615.44
2018-07-30T08:32:52.539Z,100620.42
2018-07-30T08:33:55.936Z,100619.03
2018-07-30T08:34:59.336Z,100618.22
2018-07-30T08:36:02.779Z,100619.83
2018-07-30T08:37:06.232Z,100615.65
2018-07-30T08:38:09.655Z,100617.63
2018-07-30T08:39:13.114Z,100617.05
2018-07-30T08:40:16.564Z,100617.05
2018-07-30T08:41:19.960Z,100621.44
2018-07-30T08:42:23.640Z,100614.26
2018-07-30T08:43:27.069Z,100617.25
2018-07-30T08:44:30.452Z,100620.04
2018-07-30T08:45:33.917Z,100622.83
2018-07-30T08:46:37.299Z,100622.02
2018-07-30T08:47:40.747Z,100627.22
2018-07-30T08:48:44.200Z,100628.39
2018-07-30T08:49:47.592Z,100627.81
2018-07-30T08:50:50.965Z,100635.78
2018-07-30T08:51:54.356Z,100637.17
2018-07-30T08:52:57.792Z,100627.81
2018-07-30T08:54:01.423Z,100628.02
2018-07-30T08:55:05.816Z,100632.78
2018-07-30T08:56:09.254Z,100634.18
2018-07-30T08:57:12.658Z,100629.41
2018-07-30T08:58:16.057Z,100634.98
2018-07-30T08:59:19.487Z,100627.42
2018-07-30T09:00:22.901Z,100633.00
2018-07-30T09:01:26.333Z,100631.02
2018-07-30T09:02:29.756Z,100636.00
2018-07-30T09:03:33.180Z,100633.42
2018-07-30T09:04:36.594Z,100640.39
2018-07-30T09:05:40.062Z,100634.81
2018-07-30T09:06:43.466Z,100635.62
2018-07-30T09:07:46.952Z,100632.23
2018-07-30T09:08:50.330Z,100633.63
2018-07-30T09:09:53.736Z,100630.84
2018-07-30T09:10:57.164Z,100627.92
2018-07-30T09:12:00.551Z,100632.31
2018-07-30T09:13:03.967Z,100630.70
2018-07-30T09:14:07.886Z,100631.51
2018-07-30T09:15:11.272Z,100630.11
2018-07-30T09:16:14.747Z,100634.50
2018-07-30T09:17:18.125Z,100634.72
2018-07-30T09:18:21.589Z,100631.93
2018-07-30T09:19:24.978Z,100634.72
2018-07-30T09:20:28.364Z,100633.53
2018-07-30T09:21:31.754Z,100629.36
2018-07-30T09:22:35.211Z,100625.38
2018-07-30T09:23:38.602Z,100626.19
2018-07-30T09:24:42.006Z,100629.56
2018-07-30T09:25:45.443Z,100631.97
2018-07-30T09:26:48.867Z,100630.20
2018-07-30T09:27:52.288Z,100630.20
2018-07-30T09:28:55.687Z,100629.22
2018-07-30T09:29:59.114Z,100623.44
2018-07-30T09:31:02.501Z,100623.23
2018-07-30T09:32:05.921Z,100628.80
2018-07-30T09:33:09.349Z,100622.42
2018-07-30T09:34:12.765Z,100625.42
2018-07-30T09:35:16.199Z,100623.23
2018-07-30T09:36:23.426Z,100618.45
2018-07-30T09:37:26.835Z,100627.41
2018-07-30T09:38:30.241Z,100622.42
2018-07-30T09:39:33.737Z,100619.05
2018-07-30T09:40:37.161Z,100614.88
2018-07-30T09:41:40.848Z,100616.85
2018-07-30T09:42:44.242Z,100620.44
2018-07-30T09:43:48.016Z,100618.25
2018-07-30T09:44:51.478Z,100618.25
2018-07-30T09:45:54.884Z,100616.85
2018-07-30T09:46:58.410Z,100618.45
2018-07-30T09:48:01.789Z,100614.06
2018-07-30T09:49:05.232Z,100617.87
2018-07-30T09:50:08.685Z,100621.45
2018-07-30T09:51:12.152Z,100620.66
2018-07-30T09:52:15.545Z,100615.08
2018-07-30T09:53:18.965Z,100616.47
2018-07-30T09:54:22.348Z,100614.48
2018-07-30T09:55:25.760Z,100617.27
2018-07-30T09:56:29.194Z,100612.88
2018-07-30T09:57:32.601Z,100618.08
2018-07-30T09:58:36.241Z,100615.29
2018-07-30T09:59:39.660Z,100618.67
2018-07-30T10:00:48.476Z,100619.27
2018-07-30T10:01:51.878Z,100618.08
2018-07-30T10:02:55.298Z,100611.70
2018-07-30T10:03:59.788Z,100621.10
2018-07-30T10:05:03.213Z,100608.98
2018-07-30T10:06:06.630Z,100613.16
2018-07-30T10:07:10.137Z,100612.95
2018-07-30T10:08:13.552Z,100613.75
2018-07-30T10:09:16.929Z,100608.77
2018-07-30T10:10:20.394Z,100607.38
2018-07-30T10:11:23.836Z,100608.98
2018-07-30T10:12:27.335Z,100605.39
2018-07-30T10:13:30.826Z,100603.41
2018-07-30T10:14:34.231Z,100607.00
2018-07-30T10:15:38.895Z,100609.20
2018-07-30T10:16:42.462Z,100608.39
2018-07-30T10:17:46.296Z,100603.41
2018-07-30T10:18:49.660Z,100603.62
2018-07-30T10:19:53.042Z,100605.02
2018-07-30T10:20:56.430Z,100603.41
2018-07-30T10:21:59.838Z,100610.02
2018-07-30T10:23:03.264Z,100600.83
2018-07-30T10:24:06.692Z,100602.47
2018-07-30T10:25:10.173Z,100601.07
2018-07-30T10:26:13.568Z,100596.72
2018-07-30T10:27:16.962Z,100598.11
2018-07-30T10:28:20.373Z,100594.52
2018-07-30T10:29:23.768Z,100597.31
2018-07-30T10:30:27.166Z,100596.72
2018-07-30T10:31:30.547Z,100588.73
2018-07-30T10:32:33.966Z,100587.55
2018-07-30T10:33:37.462Z,100595.92
2018-07-30T10:34:41.068Z,100596.52
2018-07-30T10:35:44.476Z,100595.12
2018-07-30T10:36:47.880Z,100588.73
2018-07-30T10:37:51.431Z,100590.55
2018-07-30T10:38:54.934Z,100587.98
2018-07-30T10:39:58.404Z,100583.80
2018-07-30T10:41:01.727Z,100582.40
2018-07-30T10:42:05.181Z,100592.37
2018-07-30T10:43:08.601Z,100588.98
2018-07-30T10:44:12.022Z,100588.19
2018-07-30T10:45:15.437Z,100592.37
2018-07-30T10:46:18.864Z,100588.39
2018-07-30T10:47:22.331Z,100588.60
2018-07-30T10:48:25.753Z,100588.60
2018-07-30T10:49:29.203Z,100587.21
2018-07-30T10:50:32.616Z,100584.62
2018-07-30T10:51:36.005Z,100587.84
2018-07-30T10:52:39.448Z,100580.66
2018-07-30T10:53:43.156Z,100576.48
2018-07-30T10:54:46.611Z,100580.87
2018-07-30T10:55:50.120Z,100583.66
2018-07-30T10:56:53.546Z,100576.69
2018-07-30T10:57:57.046Z,100576.69
2018-07-30T10:59:00.460Z,100581.67
2018-07-30T11:00:03.937Z,100579.09
2018-07-30T11:01:07.555Z,100572.92
2018-07-30T11:02:10.956Z,100577.10
2018-07-30T11:03:14.352Z,100574.11
2018-07-30T11:04:17.748Z,100573.52
2018-07-30T11:05:21.197Z,100578.88
2018-07-30T11:06:24.608Z,100572.50
2018-07-30T11:07:28.042Z,100576.69
2018-07-30T11:08:31.446Z,100577.28
2018-07-30T11:09:34.842Z,100573.69
2018-07-30T11:10:38.283Z,100574.88
2018-07-30T11:11:41.680Z,100575.08
2018-07-30T11:12:45.081Z,100576.27
2018-07-30T11:13:48.535Z,100574.28
2018-07-30T11:14:51.923Z,100568.50
2018-07-30T11:15:55.339Z,100574.88
2018-07-30T11:16:58.735Z,100569.89
2018-07-30T11:18:02.364Z,100568.50
2018-07-30T11:19:06.060Z,100574.66
2018-07-30T11:20:09.521Z,100566.30
2018-07-30T11:21:12.958Z,100562.13
2018-07-30T11:22:16.371Z,100564.91
2018-07-30T11:23:19.843Z,100564.11
2018-07-30T11:24:23.224Z,100568.88
2018-07-30T11:25:26.707Z,100569.89
2018-07-30T11:26:30.104Z,100564.49
2018-07-30T11:27:33.485Z,100566.89
2018-07-30T11:28:36.907Z,100560.73
2018-07-30T11:29:40.292Z,100565.50
2018-07-30T11:30:43.723Z,100559.72
2018-07-30T11:31:47.173Z,100559.13
2018-07-30T11:32:50.700Z,100559.93
2018-07-30T11:33:54.104Z,100553.55
2018-07-30T11:34:57.494Z,100550.17
2018-07-30T11:36:00.907Z,100555.75
2018-07-30T11:37:04.294Z,100550.97
2018-07-30T11:38:07.671Z,100550.38
2018-07-30T11:39:12.465Z,100542.61
2018-07-30T11:40:15.856Z,100546.20
2018-07-30T11:41:19.259Z,100544.59
2018-07-30T11:42:22.629Z,100536.83
2018-07-30T11:43:26.004Z,100542.61
2018-07-30T11:44:29.404Z,100542.61
2018-07-30T11:45:32.805Z,100542.02
2018-07-30T11:46:36.222Z,100547.00
2018-07-30T11:47:39.606Z,100550.00
2018-07-30T11:48:43.227Z,100544.22
2018-07-30T11:49:46.577Z,100540.62
2018-07-30T11:50:49.975Z,100542.82
2018-07-30T11:51:53.410Z,100537.25
2018-07-30T11:52:56.816Z,100540.62
2018-07-30T11:54:00.236Z,100542.23
2018-07-30T11:55:03.618Z,100538.64
2018-07-30T11:56:07.027Z,100537.45
2018-07-30T11:57:10.442Z,100536.06
2018-07-30T11:58:13.842Z,100533.27
2018-07-30T11:59:17.240Z,100533.27
2018-07-30T12:00:20.928Z,100532.68
2018-07-30T12:01:25.020Z,100531.29
2018-07-30T12:02:28.333Z,100534.67
2018-07-30T12:03:31.717Z,100531.87
2018-07-30T12:04:35.108Z,100534.08